sensor_id;sensor_type;location;lat;lon;timestamp;temperature;humidity
55091;DHT22;40985;53.180;5.800;2023-08-08T00:00:23;14.00;99.90
55091;DHT22;40985;53.180;5.800;2023-08-08T00:02:49;14.00;99.90
55091;DHT22;40985;53.180;5.800;2023-08-08T00:05:15;14.10;99.90
55091;DHT22;40985;53.180;5.800;2023-08-08T00:07:41;14.00;99.90
55091;DHT22;40985;53.180;5.800;2023-08-08T00:10:07;13.90;99.90
55091;DHT22;40985;53.180;5.800;2023-08-08T00:12:33;13.90;99.90
55091;DHT22;40985;53.180;5.800;2023-08-08T00:14:59;13.90;99.90
55091;DHT22;40985;53.180;5.800;2023-08-08T00:17:24;13.80;99.90
55091;DHT22;40985;53.180;5.800;2023-08-08T00:19:50;13.80;99.90
55091;DHT22;40985;53.180;5.800;2023-08-08T00:22:16;13.80;99.90
55091;DHT22;40985;53.180;5.800;2023-08-08T00:24:41;13.80;99.90
55091;DHT22;40985;53.180;5.800;2023-08-08T00:27:07;13.70;99.90
55091;DHT22;40985;53.180;5.800;2023-08-08T00:29:33;13.70;99.90
55091;DHT22;40985;53.180;5.800;2023-08-08T00:31:58;13.60;99.90
55091;DHT22;40985;53.180;5.800;2023-08-08T00:34:24;13.60;99.90
55091;DHT22;40985;53.180;5.800;2023-08-08T00:36:50;13.50;99.90
55091;DHT22;40985;53.180;5.800;2023-08-08T00:39:15;13.50;99.90
55091;DHT22;40985;53.180;5.800;2023-08-08T00:41:41;13.40;99.90
55091;DHT22;40985;53.180;5.800;2023-08-08T00:44:06;13.30;99.90
55091;DHT22;40985;53.180;5.800;2023-08-08T00:46:32;13.20;99.90
55091;DHT22;40985;53.180;5.800;2023-08-08T00:48:58;13.20;99.90
55091;DHT22;40985;53.180;5.800;2023-08-08T00:51:24;13.10;99.90
55091;DHT22;40985;53.180;5.800;2023-08-08T00:53:50;13.10;99.90
55091;DHT22;40985;53.180;5.800;2023-08-08T00:56:16;13.10;99.90
55091;DHT22;40985;53.180;5.800;2023-08-08T00:58:42;13.00;99.90
55091;DHT22;40985;53.180;5.800;2023-08-08T01:01:11;12.90;99.90
55091;DHT22;40985;53.180;5.800;2023-08-08T01:03:37;12.90;99.90
55091;DHT22;40985;53.180;5.800;2023-08-08T01:06:13;13.00;99.90
55091;DHT22;40985;53.180;5.800;2023-08-08T01:09:09;13.00;99.90
55091;DHT22;40985;53.180;5.800;2023-08-08T01:11:34;13.00;99.90
55091;DHT22;40985;53.180;5.800;2023-08-08T01:14:02;13.00;99.90
55091;DHT22;40985;53.180;5.800;2023-08-08T01:16:31;12.90;99.90
55091;DHT22;40985;53.180;5.800;2023-08-08T01:18:57;13.00;99.90
55091;DHT22;40985;53.180;5.800;2023-08-08T01:21:25;13.00;99.90
55091;DHT22;40985;53.180;5.800;2023-08-08T01:23:56;13.00;99.90
55091;DHT22;40985;53.180;5.800;2023-08-08T01:26:26;13.10;99.90
55091;DHT22;40985;53.180;5.800;2023-08-08T01:28:53;13.00;99.90
55091;DHT22;40985;53.180;5.800;2023-08-08T01:31:20;13.00;99.90
55091;DHT22;40985;53.180;5.800;2023-08-08T01:33:46;13.00;99.90
55091;DHT22;40985;53.180;5.800;2023-08-08T01:39:08;13.00;99.90
55091;DHT22;40985;53.180;5.800;2023-08-08T01:41:37;12.90;99.90
55091;DHT22;40985;53.180;5.800;2023-08-08T01:44:04;12.90;99.90
55091;DHT22;40985;53.180;5.800;2023-08-08T01:46:30;12.80;99.90
55091;DHT22;40985;53.180;5.800;2023-08-08T01:48:58;12.80;99.90
55091;DHT22;40985;53.180;5.800;2023-08-08T01:51:24;12.80;99.90
55091;DHT22;40985;53.180;5.800;2023-08-08T01:53:51;12.80;99.90
55091;DHT22;40985;53.180;5.800;2023-08-08T01:56:17;12.70;99.90
55091;DHT22;40985;53.180;5.800;2023-08-08T01:58:42;12.70;99.90
55091;DHT22;40985;53.180;5.800;2023-08-08T02:01:08;12.70;99.90
55091;DHT22;40985;53.180;5.800;2023-08-08T02:03:34;12.70;99.90
55091;DHT22;40985;53.180;5.800;2023-08-08T02:05:59;12.70;99.90
55091;DHT22;40985;53.180;5.800;2023-08-08T02:08:25;12.80;99.90
55091;DHT22;40985;53.180;5.800;2023-08-08T02:10:50;12.80;99.90
55091;DHT22;40985;53.180;5.800;2023-08-08T02:13:16;12.90;99.90
55091;DHT22;40985;53.180;5.800;2023-08-08T02:15:42;12.90;99.90
55091;DHT22;40985;53.180;5.800;2023-08-08T02:18:07;12.90;99.90
55091;DHT22;40985;53.180;5.800;2023-08-08T02:20:35;12.90;99.90
55091;DHT22;40985;53.180;5.800;2023-08-08T02:23:00;13.00;99.90
55091;DHT22;40985;53.180;5.800;2023-08-08T02:25:26;13.00;99.90
55091;DHT22;40985;53.180;5.800;2023-08-08T02:27:52;13.00;99.90
55091;DHT22;40985;53.180;5.800;2023-08-08T02:30:17;13.10;99.90
55091;DHT22;40985;53.180;5.800;2023-08-08T02:32:43;13.20;99.90
55091;DHT22;40985;53.180;5.800;2023-08-08T02:35:09;13.40;99.90
55091;DHT22;40985;53.180;5.800;2023-08-08T02:37:35;13.40;99.90
55091;DHT22;40985;53.180;5.800;2023-08-08T02:40:01;13.40;99.90
55091;DHT22;40985;53.180;5.800;2023-08-08T02:42:26;13.40;99.90
55091;DHT22;40985;53.180;5.800;2023-08-08T02:44:52;13.40;99.90
55091;DHT22;40985;53.180;5.800;2023-08-08T02:47:18;13.30;99.90
55091;DHT22;40985;53.180;5.800;2023-08-08T02:49:43;13.40;99.90
55091;DHT22;40985;53.180;5.800;2023-08-08T02:52:09;13.50;99.90
55091;DHT22;40985;53.180;5.800;2023-08-08T02:54:34;13.40;99.90
55091;DHT22;40985;53.180;5.800;2023-08-08T02:57:00;13.40;99.90
55091;DHT22;40985;53.180;5.800;2023-08-08T02:59:26;13.40;99.90
55091;DHT22;40985;53.180;5.800;2023-08-08T03:01:51;13.40;99.90
55091;DHT22;40985;53.180;5.800;2023-08-08T03:04:17;13.40;99.90
55091;DHT22;40985;53.180;5.800;2023-08-08T03:06:43;13.30;99.90
55091;DHT22;40985;53.180;5.800;2023-08-08T03:09:08;13.20;99.90
55091;DHT22;40985;53.180;5.800;2023-08-08T03:11:34;13.10;99.90
55091;DHT22;40985;53.180;5.800;2023-08-08T03:14:00;13.00;99.90
55091;DHT22;40985;53.180;5.800;2023-08-08T03:16:25;13.00;99.90
55091;DHT22;40985;53.180;5.800;2023-08-08T03:18:51;13.00;99.90
55091;DHT22;40985;53.180;5.800;2023-08-08T03:21:17;13.00;99.90
55091;DHT22;40985;53.180;5.800;2023-08-08T03:23:44;13.00;99.90
55091;DHT22;40985;53.180;5.800;2023-08-08T03:26:09;13.10;99.90
55091;DHT22;40985;53.180;5.800;2023-08-08T03:28:35;13.10;99.90
55091;DHT22;40985;53.180;5.800;2023-08-08T03:31:01;13.20;99.90
55091;DHT22;40985;53.180;5.800;2023-08-08T03:33:28;13.10;99.90
55091;DHT22;40985;53.180;5.800;2023-08-08T03:35:54;13.10;99.90
55091;DHT22;40985;53.180;5.800;2023-08-08T03:38:20;13.20;99.90
55091;DHT22;40985;53.180;5.800;2023-08-08T03:40:45;13.20;99.90
55091;DHT22;40985;53.180;5.800;2023-08-08T03:43:11;13.20;99.90
55091;DHT22;40985;53.180;5.800;2023-08-08T03:45:36;13.20;99.90
55091;DHT22;40985;53.180;5.800;2023-08-08T03:48:02;13.30;99.90
55091;DHT22;40985;53.180;5.800;2023-08-08T03:50:28;13.40;99.90
55091;DHT22;40985;53.180;5.800;2023-08-08T03:52:54;13.40;99.90
55091;DHT22;40985;53.180;5.800;2023-08-08T03:55:19;13.40;99.90
55091;DHT22;40985;53.180;5.800;2023-08-08T03:57:45;13.30;99.90
55091;DHT22;40985;53.180;5.800;2023-08-08T04:00:11;13.30;99.90
55091;DHT22;40985;53.180;5.800;2023-08-08T04:02:37;13.30;99.90
55091;DHT22;40985;53.180;5.800;2023-08-08T04:05:02;13.30;99.90
55091;DHT22;40985;53.180;5.800;2023-08-08T04:07:28;13.20;99.90
55091;DHT22;40985;53.180;5.800;2023-08-08T04:09:54;13.20;99.90
55091;DHT22;40985;53.180;5.800;2023-08-08T04:12:19;13.10;99.90
55091;DHT22;40985;53.180;5.800;2023-08-08T04:14:45;13.20;99.90
55091;DHT22;40985;53.180;5.800;2023-08-08T04:17:11;13.20;99.90
55091;DHT22;40985;53.180;5.800;2023-08-08T04:19:36;13.10;99.90
55091;DHT22;40985;53.180;5.800;2023-08-08T04:22:02;13.20;99.90
55091;DHT22;40985;53.180;5.800;2023-08-08T04:24:28;13.10;99.90
55091;DHT22;40985;53.180;5.800;2023-08-08T04:26:53;13.10;99.90
55091;DHT22;40985;53.180;5.800;2023-08-08T04:29:19;13.20;99.90
55091;DHT22;40985;53.180;5.800;2023-08-08T04:31:45;13.20;99.90
55091;DHT22;40985;53.180;5.800;2023-08-08T04:34:10;13.20;99.90
55091;DHT22;40985;53.180;5.800;2023-08-08T04:36:36;13.20;99.90
55091;DHT22;40985;53.180;5.800;2023-08-08T04:39:02;13.20;99.90
55091;DHT22;40985;53.180;5.800;2023-08-08T04:41:27;13.10;99.90
55091;DHT22;40985;53.180;5.800;2023-08-08T04:43:53;13.10;99.90
55091;DHT22;40985;53.180;5.800;2023-08-08T04:46:19;13.00;99.90
55091;DHT22;40985;53.180;5.800;2023-08-08T04:48:44;13.10;99.90
55091;DHT22;40985;53.180;5.800;2023-08-08T04:51:10;13.10;99.90
55091;DHT22;40985;53.180;5.800;2023-08-08T04:53:36;13.10;99.90
55091;DHT22;40985;53.180;5.800;2023-08-08T04:56:02;13.10;99.90
55091;DHT22;40985;53.180;5.800;2023-08-08T04:58:28;13.10;99.90
55091;DHT22;40985;53.180;5.800;2023-08-08T05:00:54;13.20;99.90
55091;DHT22;40985;53.180;5.800;2023-08-08T05:03:20;13.20;99.90
55091;DHT22;40985;53.180;5.800;2023-08-08T05:05:46;13.30;99.90
55091;DHT22;40985;53.180;5.800;2023-08-08T05:08:13;13.30;99.90
55091;DHT22;40985;53.180;5.800;2023-08-08T05:10:39;13.40;99.90
55091;DHT22;40985;53.180;5.800;2023-08-08T05:13:04;13.40;99.90
55091;DHT22;40985;53.180;5.800;2023-08-08T05:15:30;13.50;99.90
55091;DHT22;40985;53.180;5.800;2023-08-08T05:17:56;13.50;99.90
55091;DHT22;40985;53.180;5.800;2023-08-08T05:20:22;13.50;99.90
55091;DHT22;40985;53.180;5.800;2023-08-08T05:22:48;13.60;99.90
55091;DHT22;40985;53.180;5.800;2023-08-08T05:25:14;13.70;99.90
55091;DHT22;40985;53.180;5.800;2023-08-08T05:27:39;13.60;99.90
55091;DHT22;40985;53.180;5.800;2023-08-08T05:30:06;13.80;99.90
55091;DHT22;40985;53.180;5.800;2023-08-08T05:32:32;13.90;99.90
55091;DHT22;40985;53.180;5.800;2023-08-08T05:34:57;13.90;99.90
55091;DHT22;40985;53.180;5.800;2023-08-08T05:37:24;13.90;99.90
55091;DHT22;40985;53.180;5.800;2023-08-08T05:39:49;13.80;99.90
55091;DHT22;40985;53.180;5.800;2023-08-08T05:42:15;13.80;99.90
55091;DHT22;40985;53.180;5.800;2023-08-08T05:44:41;13.90;99.90
55091;DHT22;40985;53.180;5.800;2023-08-08T05:47:07;13.90;99.90
55091;DHT22;40985;53.180;5.800;2023-08-08T05:49:33;14.00;99.90
55091;DHT22;40985;53.180;5.800;2023-08-08T05:51:59;14.10;99.90
55091;DHT22;40985;53.180;5.800;2023-08-08T05:54:25;14.10;99.90
55091;DHT22;40985;53.180;5.800;2023-08-08T05:56:50;14.20;99.90
55091;DHT22;40985;53.180;5.800;2023-08-08T05:59:16;14.30;99.90
55091;DHT22;40985;53.180;5.800;2023-08-08T06:01:42;14.30;99.90
55091;DHT22;40985;53.180;5.800;2023-08-08T06:04:09;14.30;99.90
55091;DHT22;40985;53.180;5.800;2023-08-08T06:06:34;14.30;99.90
55091;DHT22;40985;53.180;5.800;2023-08-08T06:09:00;14.40;99.90
55091;DHT22;40985;53.180;5.800;2023-08-08T06:11:26;14.40;99.90
55091;DHT22;40985;53.180;5.800;2023-08-08T06:13:51;14.50;99.90
55091;DHT22;40985;53.180;5.800;2023-08-08T06:16:17;14.50;99.90
55091;DHT22;40985;53.180;5.800;2023-08-08T06:18:44;14.50;99.90
55091;DHT22;40985;53.180;5.800;2023-08-08T06:21:09;14.60;99.90
55091;DHT22;40985;53.180;5.800;2023-08-08T06:23:35;14.70;99.90
55091;DHT22;40985;53.180;5.800;2023-08-08T06:26:01;14.70;99.90
55091;DHT22;40985;53.180;5.800;2023-08-08T06:28:26;14.80;99.90
55091;DHT22;40985;53.180;5.800;2023-08-08T06:30:52;14.80;99.90
55091;DHT22;40985;53.180;5.800;2023-08-08T06:33:17;14.90;99.90
55091;DHT22;40985;53.180;5.800;2023-08-08T06:35:44;15.00;99.90
55091;DHT22;40985;53.180;5.800;2023-08-08T06:38:10;15.10;99.90
55091;DHT22;40985;53.180;5.800;2023-08-08T06:40:36;15.20;99.90
55091;DHT22;40985;53.180;5.800;2023-08-08T06:43:02;15.20;99.90
55091;DHT22;40985;53.180;5.800;2023-08-08T06:45:28;15.20;99.90
55091;DHT22;40985;53.180;5.800;2023-08-08T06:47:54;15.20;99.90
55091;DHT22;40985;53.180;5.800;2023-08-08T06:50:20;15.20;99.90
55091;DHT22;40985;53.180;5.800;2023-08-08T06:52:46;15.30;99.90
55091;DHT22;40985;53.180;5.800;2023-08-08T06:55:11;15.30;99.90
55091;DHT22;40985;53.180;5.800;2023-08-08T06:57:37;15.40;99.90
55091;DHT22;40985;53.180;5.800;2023-08-08T07:00:03;15.50;99.90
55091;DHT22;40985;53.180;5.800;2023-08-08T07:02:34;15.40;99.90
55091;DHT22;40985;53.180;5.800;2023-08-08T07:04:59;15.40;99.90
55091;DHT22;40985;53.180;5.800;2023-08-08T07:07:25;15.50;99.90
55091;DHT22;40985;53.180;5.800;2023-08-08T07:09:51;15.50;99.90
55091;DHT22;40985;53.180;5.800;2023-08-08T07:12:17;15.50;99.90
55091;DHT22;40985;53.180;5.800;2023-08-08T07:14:42;15.50;99.90
55091;DHT22;40985;53.180;5.800;2023-08-08T07:17:08;15.50;99.90
55091;DHT22;40985;53.180;5.800;2023-08-08T07:19:35;15.50;99.90
55091;DHT22;40985;53.180;5.800;2023-08-08T07:22:02;15.60;99.90
55091;DHT22;40985;53.180;5.800;2023-08-08T07:24:27;15.70;99.90
55091;DHT22;40985;53.180;5.800;2023-08-08T07:26:58;15.60;99.90
55091;DHT22;40985;53.180;5.800;2023-08-08T07:29:24;15.70;99.90
55091;DHT22;40985;53.180;5.800;2023-08-08T07:31:52;15.70;99.90
55091;DHT22;40985;53.180;5.800;2023-08-08T07:34:19;15.70;99.90
55091;DHT22;40985;53.180;5.800;2023-08-08T07:36:45;15.70;99.90
55091;DHT22;40985;53.180;5.800;2023-08-08T07:39:10;15.80;99.90
55091;DHT22;40985;53.180;5.800;2023-08-08T07:41:36;15.80;99.90
55091;DHT22;40985;53.180;5.800;2023-08-08T07:44:02;15.80;99.90
55091;DHT22;40985;53.180;5.800;2023-08-08T07:46:28;15.80;99.90
55091;DHT22;40985;53.180;5.800;2023-08-08T07:48:54;15.80;99.90
55091;DHT22;40985;53.180;5.800;2023-08-08T07:51:20;15.80;99.90
55091;DHT22;40985;53.180;5.800;2023-08-08T07:53:45;15.80;99.90
55091;DHT22;40985;53.180;5.800;2023-08-08T07:56:11;15.80;99.90
55091;DHT22;40985;53.180;5.800;2023-08-08T07:58:37;15.90;99.90
55091;DHT22;40985;53.180;5.800;2023-08-08T08:01:02;15.80;99.90
55091;DHT22;40985;53.180;5.800;2023-08-08T08:03:28;15.80;99.90
55091;DHT22;40985;53.180;5.800;2023-08-08T08:05:54;15.80;99.90
55091;DHT22;40985;53.180;5.800;2023-08-08T08:08:20;15.70;99.90
55091;DHT22;40985;53.180;5.800;2023-08-08T08:10:47;15.80;99.90
55091;DHT22;40985;53.180;5.800;2023-08-08T08:13:14;15.80;99.90
55091;DHT22;40985;53.180;5.800;2023-08-08T08:15:39;15.90;99.90
55091;DHT22;40985;53.180;5.800;2023-08-08T08:18:05;15.90;99.90
55091;DHT22;40985;53.180;5.800;2023-08-08T08:20:31;16.00;99.90
55091;DHT22;40985;53.180;5.800;2023-08-08T08:22:57;16.10;99.90
55091;DHT22;40985;53.180;5.800;2023-08-08T08:25:23;16.10;99.90
55091;DHT22;40985;53.180;5.800;2023-08-08T08:27:48;16.30;99.90
55091;DHT22;40985;53.180;5.800;2023-08-08T08:30:14;16.20;99.90
55091;DHT22;40985;53.180;5.800;2023-08-08T08:32:40;16.00;99.90
55091;DHT22;40985;53.180;5.800;2023-08-08T08:35:07;15.90;99.90
55091;DHT22;40985;53.180;5.800;2023-08-08T08:37:33;16.10;99.90
55091;DHT22;40985;53.180;5.800;2023-08-08T08:39:59;16.50;99.90
55091;DHT22;40985;53.180;5.800;2023-08-08T08:42:27;16.40;99.90
55091;DHT22;40985;53.180;5.800;2023-08-08T08:44:57;16.20;99.90
55091;DHT22;40985;53.180;5.800;2023-08-08T08:47:24;16.30;99.90
55091;DHT22;40985;53.180;5.800;2023-08-08T08:49:52;16.40;99.90
55091;DHT22;40985;53.180;5.800;2023-08-08T08:52:18;16.40;99.90
55091;DHT22;40985;53.180;5.800;2023-08-08T08:54:43;16.40;99.90
55091;DHT22;40985;53.180;5.800;2023-08-08T08:57:09;16.50;99.90
55091;DHT22;40985;53.180;5.800;2023-08-08T08:59:35;16.50;99.90
55091;DHT22;40985;53.180;5.800;2023-08-08T09:02:01;16.20;99.90
55091;DHT22;40985;53.180;5.800;2023-08-08T09:04:29;16.10;99.90
55091;DHT22;40985;53.180;5.800;2023-08-08T09:06:55;16.20;99.90
55091;DHT22;40985;53.180;5.800;2023-08-08T09:09:21;16.10;99.90
55091;DHT22;40985;53.180;5.800;2023-08-08T09:11:53;16.10;99.90
55091;DHT22;40985;53.180;5.800;2023-08-08T09:14:23;16.20;99.90
55091;DHT22;40985;53.180;5.800;2023-08-08T09:16:50;16.20;99.90
55091;DHT22;40985;53.180;5.800;2023-08-08T09:19:18;16.40;99.90
55091;DHT22;40985;53.180;5.800;2023-08-08T09:21:44;16.50;99.90
55091;DHT22;40985;53.180;5.800;2023-08-08T09:24:10;16.40;99.90
55091;DHT22;40985;53.180;5.800;2023-08-08T09:26:36;16.60;99.90
55091;DHT22;40985;53.180;5.800;2023-08-08T09:29:02;16.80;99.90
55091;DHT22;40985;53.180;5.800;2023-08-08T09:31:28;16.60;99.90
55091;DHT22;40985;53.180;5.800;2023-08-08T09:33:57;16.10;99.90
55091;DHT22;40985;53.180;5.800;2023-08-08T09:36:23;15.90;99.90
55091;DHT22;40985;53.180;5.800;2023-08-08T09:38:49;15.70;99.90
55091;DHT22;40985;53.180;5.800;2023-08-08T09:41:15;15.90;99.90
55091;DHT22;40985;53.180;5.800;2023-08-08T09:43:44;16.10;99.90
55091;DHT22;40985;53.180;5.800;2023-08-08T09:46:10;16.20;99.90
55091;DHT22;40985;53.180;5.800;2023-08-08T09:48:39;16.10;99.90
55091;DHT22;40985;53.180;5.800;2023-08-08T09:51:07;15.90;99.90
55091;DHT22;40985;53.180;5.800;2023-08-08T09:53:34;16.00;99.90
55091;DHT22;40985;53.180;5.800;2023-08-08T09:56:03;16.30;99.90
55091;DHT22;40985;53.180;5.800;2023-08-08T09:58:30;16.40;99.90
55091;DHT22;40985;53.180;5.800;2023-08-08T10:00:56;16.30;99.90
55091;DHT22;40985;53.180;5.800;2023-08-08T10:03:22;16.30;99.90
55091;DHT22;40985;53.180;5.800;2023-08-08T10:05:48;16.40;99.90
55091;DHT22;40985;53.180;5.800;2023-08-08T10:08:18;16.50;99.90
55091;DHT22;40985;53.180;5.800;2023-08-08T10:10:45;16.70;99.90
55091;DHT22;40985;53.180;5.800;2023-08-08T10:13:22;16.90;99.90
55091;DHT22;40985;53.180;5.800;2023-08-08T10:15:48;17.20;99.90
55091;DHT22;40985;53.180;5.800;2023-08-08T10:18:14;17.30;99.90
55091;DHT22;40985;53.180;5.800;2023-08-08T10:20:43;17.20;99.90
55091;DHT22;40985;53.180;5.800;2023-08-08T10:23:09;17.10;99.90
55091;DHT22;40985;53.180;5.800;2023-08-08T10:25:35;17.30;99.90
55091;DHT22;40985;53.180;5.800;2023-08-08T10:28:12;17.50;99.90
55091;DHT22;40985;53.180;5.800;2023-08-08T10:31:00;17.50;99.90
55091;DHT22;40985;53.180;5.800;2023-08-08T10:33:47;17.10;99.90
55091;DHT22;40985;53.180;5.800;2023-08-08T10:36:13;17.00;99.90
55091;DHT22;40985;53.180;5.800;2023-08-08T10:38:44;17.10;99.90
55091;DHT22;40985;53.180;5.800;2023-08-08T10:41:15;16.80;99.90
55091;DHT22;40985;53.180;5.800;2023-08-08T10:43:56;16.80;99.90
55091;DHT22;40985;53.180;5.800;2023-08-08T10:46:27;16.50;99.90
55091;DHT22;40985;53.180;5.800;2023-08-08T10:48:55;16.30;99.90
55091;DHT22;40985;53.180;5.800;2023-08-08T10:51:21;16.60;99.90
55091;DHT22;40985;53.180;5.800;2023-08-08T10:53:51;17.00;99.90
55091;DHT22;40985;53.180;5.800;2023-08-08T10:56:18;17.20;99.90
55091;DHT22;40985;53.180;5.800;2023-08-08T10:58:48;17.20;99.90
55091;DHT22;40985;53.180;5.800;2023-08-08T11:01:14;17.10;99.90
55091;DHT22;40985;53.180;5.800;2023-08-08T11:03:42;17.30;99.90
55091;DHT22;40985;53.180;5.800;2023-08-08T11:06:08;17.40;99.90
55091;DHT22;40985;53.180;5.800;2023-08-08T11:08:35;17.10;99.90
55091;DHT22;40985;53.180;5.800;2023-08-08T11:11:04;17.00;99.90
55091;DHT22;40985;53.180;5.800;2023-08-08T11:13:30;17.20;99.90
55091;DHT22;40985;53.180;5.800;2023-08-08T11:15:56;17.20;99.90
55091;DHT22;40985;53.180;5.800;2023-08-08T11:18:22;17.30;99.90
55091;DHT22;40985;53.180;5.800;2023-08-08T11:20:48;17.10;99.90
55091;DHT22;40985;53.180;5.800;2023-08-08T11:23:15;17.40;99.90
55091;DHT22;40985;53.180;5.800;2023-08-08T11:25:42;17.40;99.90
55091;DHT22;40985;53.180;5.800;2023-08-08T11:28:09;17.40;99.90
55091;DHT22;40985;53.180;5.800;2023-08-08T11:30:37;17.70;99.90
55091;DHT22;40985;53.180;5.800;2023-08-08T11:33:03;17.40;99.90
55091;DHT22;40985;53.180;5.800;2023-08-08T11:35:29;17.20;99.90
55091;DHT22;40985;53.180;5.800;2023-08-08T11:37:57;17.10;99.90
55091;DHT22;40985;53.180;5.800;2023-08-08T11:40:25;17.20;99.90
55091;DHT22;40985;53.180;5.800;2023-08-08T11:42:51;17.30;99.90
55091;DHT22;40985;53.180;5.800;2023-08-08T11:45:18;17.40;99.90
55091;DHT22;40985;53.180;5.800;2023-08-08T11:47:48;17.80;99.90
55091;DHT22;40985;53.180;5.800;2023-08-08T11:50:13;17.70;99.90
55091;DHT22;40985;53.180;5.800;2023-08-08T11:52:40;17.60;99.90
55091;DHT22;40985;53.180;5.800;2023-08-08T11:55:10;17.90;99.90
55091;DHT22;40985;53.180;5.800;2023-08-08T11:57:39;17.90;99.90
55091;DHT22;40985;53.180;5.800;2023-08-08T12:00:07;17.90;99.90
55091;DHT22;40985;53.180;5.800;2023-08-08T12:02:34;17.80;99.90
55091;DHT22;40985;53.180;5.800;2023-08-08T12:05:08;17.60;99.90
55091;DHT22;40985;53.180;5.800;2023-08-08T12:07:35;17.40;99.90
55091;DHT22;40985;53.180;5.800;2023-08-08T12:10:03;17.30;99.90
55091;DHT22;40985;53.180;5.800;2023-08-08T12:12:31;17.30;99.90
55091;DHT22;40985;53.180;5.800;2023-08-08T12:15:03;17.40;99.90
55091;DHT22;40985;53.180;5.800;2023-08-08T12:17:31;17.20;99.90
55091;DHT22;40985;53.180;5.800;2023-08-08T12:19:59;16.80;99.90
55091;DHT22;40985;53.180;5.800;2023-08-08T12:22:25;16.40;99.90
55091;DHT22;40985;53.180;5.800;2023-08-08T12:24:51;16.50;99.90
55091;DHT22;40985;53.180;5.800;2023-08-08T12:27:17;16.90;99.90
55091;DHT22;40985;53.180;5.800;2023-08-08T12:29:43;17.20;99.90
55091;DHT22;40985;53.180;5.800;2023-08-08T12:32:10;17.80;99.90
55091;DHT22;40985;53.180;5.800;2023-08-08T12:34:35;17.80;99.90
55091;DHT22;40985;53.180;5.800;2023-08-08T12:37:01;17.50;99.90
55091;DHT22;40985;53.180;5.800;2023-08-08T12:39:28;17.20;99.90
55091;DHT22;40985;53.180;5.800;2023-08-08T12:41:54;17.40;99.90
55091;DHT22;40985;53.180;5.800;2023-08-08T12:44:19;17.60;99.90
55091;DHT22;40985;53.180;5.800;2023-08-08T12:46:45;17.80;99.90
55091;DHT22;40985;53.180;5.800;2023-08-08T12:49:11;17.40;99.90
55091;DHT22;40985;53.180;5.800;2023-08-08T12:51:37;17.50;99.90
55091;DHT22;40985;53.180;5.800;2023-08-08T12:54:03;17.70;99.90
55091;DHT22;40985;53.180;5.800;2023-08-08T12:56:28;18.10;99.90
55091;DHT22;40985;53.180;5.800;2023-08-08T12:58:54;18.50;99.90
55091;DHT22;40985;53.180;5.800;2023-08-08T13:01:20;18.70;99.90
55091;DHT22;40985;53.180;5.800;2023-08-08T13:03:46;18.30;99.90
55091;DHT22;40985;53.180;5.800;2023-08-08T13:06:12;18.00;99.90
55091;DHT22;40985;53.180;5.800;2023-08-08T13:08:38;17.70;99.90
55091;DHT22;40985;53.180;5.800;2023-08-08T13:11:04;17.40;99.90
55091;DHT22;40985;53.180;5.800;2023-08-08T13:13:30;17.10;99.90
55091;DHT22;40985;53.180;5.800;2023-08-08T13:15:56;16.80;99.90
55091;DHT22;40985;53.180;5.800;2023-08-08T13:18:22;16.90;99.90
55091;DHT22;40985;53.180;5.800;2023-08-08T13:20:48;17.30;99.90
55091;DHT22;40985;53.180;5.800;2023-08-08T13:23:14;17.60;99.90
55091;DHT22;40985;53.180;5.800;2023-08-08T13:25:39;17.80;99.90
55091;DHT22;40985;53.180;5.800;2023-08-08T13:28:06;17.60;99.90
55091;DHT22;40985;53.180;5.800;2023-08-08T13:30:32;17.70;99.90
55091;DHT22;40985;53.180;5.800;2023-08-08T13:32:59;17.40;99.90
55091;DHT22;40985;53.180;5.800;2023-08-08T13:35:25;17.70;99.90
55091;DHT22;40985;53.180;5.800;2023-08-08T13:37:51;17.90;99.90
55091;DHT22;40985;53.180;5.800;2023-08-08T13:40:18;18.20;99.90
55091;DHT22;40985;53.180;5.800;2023-08-08T13:42:44;17.90;99.90
55091;DHT22;40985;53.180;5.800;2023-08-08T13:45:14;18.20;99.90
55091;DHT22;40985;53.180;5.800;2023-08-08T13:47:39;17.90;99.90
55091;DHT22;40985;53.180;5.800;2023-08-08T13:50:06;17.30;99.90
55091;DHT22;40985;53.180;5.800;2023-08-08T13:52:32;17.10;99.90
55091;DHT22;40985;53.180;5.800;2023-08-08T13:54:59;16.70;99.90
55091;DHT22;40985;53.180;5.800;2023-08-08T13:57:25;16.90;99.90
55091;DHT22;40985;53.180;5.800;2023-08-08T13:59:50;17.20;99.90
55091;DHT22;40985;53.180;5.800;2023-08-08T14:02:16;17.40;99.90
55091;DHT22;40985;53.180;5.800;2023-08-08T14:04:44;17.50;99.90
55091;DHT22;40985;53.180;5.800;2023-08-08T14:07:10;17.40;99.90
55091;DHT22;40985;53.180;5.800;2023-08-08T14:09:36;17.60;99.90
55091;DHT22;40985;53.180;5.800;2023-08-08T14:12:02;17.40;99.90
55091;DHT22;40985;53.180;5.800;2023-08-08T14:14:28;17.40;99.90
55091;DHT22;40985;53.180;5.800;2023-08-08T14:16:54;17.40;99.90
55091;DHT22;40985;53.180;5.800;2023-08-08T14:19:20;17.10;99.90
55091;DHT22;40985;53.180;5.800;2023-08-08T14:21:46;16.90;99.90
55091;DHT22;40985;53.180;5.800;2023-08-08T14:24:11;16.70;99.90
55091;DHT22;40985;53.180;5.800;2023-08-08T14:26:37;16.70;99.90
55091;DHT22;40985;53.180;5.800;2023-08-08T14:29:03;16.80;99.90
55091;DHT22;40985;53.180;5.800;2023-08-08T14:31:30;16.80;99.90
55091;DHT22;40985;53.180;5.800;2023-08-08T14:33:56;17.00;99.90
55091;DHT22;40985;53.180;5.800;2023-08-08T14:36:22;17.00;99.90
55091;DHT22;40985;53.180;5.800;2023-08-08T14:38:47;16.90;99.90
55091;DHT22;40985;53.180;5.800;2023-08-08T14:41:13;17.20;99.90
55091;DHT22;40985;53.180;5.800;2023-08-08T14:43:39;17.00;99.90
55091;DHT22;40985;53.180;5.800;2023-08-08T14:46:04;16.80;99.90
55091;DHT22;40985;53.180;5.800;2023-08-08T14:48:30;16.60;99.90
55091;DHT22;40985;53.180;5.800;2023-08-08T14:50:57;16.50;99.90
55091;DHT22;40985;53.180;5.800;2023-08-08T14:53:22;16.20;99.90
55091;DHT22;40985;53.180;5.800;2023-08-08T14:55:48;16.10;99.90
55091;DHT22;40985;53.180;5.800;2023-08-08T14:58:14;16.10;99.90
55091;DHT22;40985;53.180;5.800;2023-08-08T15:00:40;16.10;99.90
55091;DHT22;40985;53.180;5.800;2023-08-08T15:03:06;16.00;99.90
55091;DHT22;40985;53.180;5.800;2023-08-08T15:05:32;16.30;99.90
55091;DHT22;40985;53.180;5.800;2023-08-08T15:07:58;16.50;99.90
55091;DHT22;40985;53.180;5.800;2023-08-08T15:10:23;16.50;99.90
55091;DHT22;40985;53.180;5.800;2023-08-08T15:12:49;16.50;99.90
55091;DHT22;40985;53.180;5.800;2023-08-08T15:15:15;16.30;99.90
55091;DHT22;40985;53.180;5.800;2023-08-08T15:17:42;16.40;99.90
55091;DHT22;40985;53.180;5.800;2023-08-08T15:20:09;16.10;99.90
55091;DHT22;40985;53.180;5.800;2023-08-08T15:22:36;16.20;99.90
55091;DHT22;40985;53.180;5.800;2023-08-08T15:25:02;16.20;99.90
55091;DHT22;40985;53.180;5.800;2023-08-08T15:27:29;16.40;99.90